Pagrindinis puslapis
METAR-TAF:

METAR-TAF

Oro uostai :

Trondheimas, Norvegija

platuma: 63-28N, ilguma: 010-56E, Aukštis: 1 m

Dabartinis oras

Ataskaita buvo paskelbta 34 minutes, ne 12:20 UTC
Vėjas 7 kt iš Vakarų
Temperatūra 11°C
Drėgmė 50%
Slėgis 1024 hPa
Matomumas 10 km arba daugiau
nėra debesų žemiau 1500 m ir nėra kamuolinių lietaus debesų

METAR: ENVA 191220Z 27007KT CAVOK 11/01 Q1024 NOSIG RMK WIND 670FT 00000KT

Laikas: 14:54 (12:54 UTC)

Prognozė

Prognozė galioja nuo 19 metu 12 UTC su 20 metu 12 UTC
Vėjas 10 kt iš Vakarų
Matomumas 10 km arba daugiau
nėra debesų žemiau 1500 m ir nėra kamuolinių lietaus debesų
Tapsmas
nuo 19 metu 16 UTC su 19 metu 18 UTC
Vėjas 5 kt iš Rytų
Tapsmas
nuo 20 metu 08 UTC su 20 metu 10 UTC
Vėjas 10 kt iš Vakarų

TAF: ENVA 1912/2012 26010KT CAVOK BECMG 1916/1918 10005KT BECMG 2008/2010 26010KT

Orai ataskaitas ir orų prognozės (METAR, TAF).

turimą stotys yra geltonos ir raudonos taškus žemėlapyje.

Perkelti pele per norėdami pamatyti stoties vardą.

Tada spustelėkite, norėdami matyti oro stebėjimo ir prognozės.

Norėdami pakeisti žemėlapį: spustelėkite ant žalios mygtukų su juodo kryžiaus žemyn,; žalią mygtuką su brūkšneliu, jei norite nutolinti; arba žalių rodyklių gretimoms žemėlapius.


METAR-TAF: